Nedim — 9HA3154 — position and weather

sailwx.info

Track history (hours):
 
Tides and Currents Weather Stations Pressure Air Temp Water Temp Dewpoint Dewpoint Depression Visibility Wind Speed Wind Dir Waves Ship Positions

Nedim

Last reported at 2018-Feb-08 09:30 UTC. Time now 2018-Feb-21 21:25 UTC.
Position N 36°20' E 014°42'.
Warning: this ship's position is 13 days out of date.

Length 180 m; draft 9.4 m.

Type: Cargo ship. MMSI: 229214000.

Date/timePositionNaut miles runAvg speedWind from/ knotsBaromVisibWave heightAir tempDewpointWater temp
2018-Feb-08 09:30N 36°20' E 014°42'57712.1
2018-Feb-06 09:44N 37°04' E 002°45'312.1
2018-Feb-06 09:30N 37°04' E 002°41'612.2
2018-Feb-06 09:00N 37°02' E 002°34'612.3
2018-Feb-06 08:30N 37°01' E 002°26'612.3
2018-Feb-06 08:00N 37°00' E 002°19'612.1
2018-Feb-06 07:30N 36°59' E 002°11'36012.4
2018-Feb-05 02:21N 36°01' W 005°11'513.9
2018-Feb-05 02:00N 36°00' W 005°17'714.0
2018-Feb-05 01:30N 35°58' W 005°25'25910.4
2018-Feb-04 00:35N 38°17' W 009°59'212.5
2018-Feb-04 00:26N 38°19' W 009°60'512.3
2018-Feb-04 00:00N 38°24' W 010°01'612.4
2018-Feb-03 23:30N 38°30' W 010°03'612.4
2018-Feb-03 22:59N 38°36' W 010°05'612.3
2018-Feb-03 22:30N 38°42' W 010°06'612.6
2018-Feb-03 22:00N 38°48' W 010°06'612.7
2018-Feb-03 21:30N 38°55' W 010°07'612.4
2018-Feb-03 21:00N 39°01' W 010°07'612.5
2018-Feb-03 20:30N 39°07' W 010°06'612.3
2018-Feb-03 20:00N 39°13' W 010°07'  
2018-Feb-01 00:51N 49°47' W 003°26'511.0
2018-Feb-01 00:25N 49°49' W 003°20'410.7
2018-Feb-01 00:00N 49°51' W 003°14'1010.4
2018-Jan-31 23:00N 49°57' W 002°60'5 9.7
2018-Jan-31 22:30N 49°59' W 002°53'13 8.2
2018-Jan-31 20:55N 50°03' W 002°34'18 6.0
2018-Jan-31 17:57N 50°07' W 002°07'5 7.1
2018-Jan-31 17:18N 50°09' W 002°00'2 7.9
2018-Jan-31 17:00N 50°10' W 001°56'5 9.3
2018-Jan-31 16:30N 50°11' W 001°50'510.5
2018-Jan-31 16:00N 50°12' W 001°42'611.6
2018-Jan-31 15:30N 50°14' W 001°33'612.3
2018-Jan-31 15:00N 50°15' W 001°24'3812.5
2018-Jan-31 11:55N 50°25' W 000°26'410.5
2018-Jan-31 11:30N 50°27' W 000°19'5 9.8
2018-Jan-31 11:00N 50°28' W 000°11'4 9.0
2018-Jan-31 10:30N 50°29' W 000°05'4 8.1
2018-Jan-31 10:00N 50°30' E 000°01'4 7.3
2018-Jan-31 09:30N 50°31' E 000°07'3 6.5
2018-Jan-31 09:00N 50°32' E 000°12'3 6.1
2018-Jan-31 08:30N 50°33' E 000°16'3 6.2
2018-Jan-31 08:00N 50°34' E 000°21'3 6.9
2018-Jan-31 07:30N 50°35' E 000°26'4 7.4
2018-Jan-31 07:00N 50°36' E 000°32'4 8.3
2018-Jan-31 06:30N 50°37' E 000°38'4 9.0
2018-Jan-31 06:00N 50°40' E 000°43'5 9.1
2018-Jan-31 05:30N 50°43' E 000°49'5 9.5
2018-Jan-31 05:00N 50°46' E 000°55'5 9.5
2018-Jan-31 04:30N 50°49' E 001°00'10 8.9
2018-Jan-31 03:26N 50°56' E 001°12'4 8.9
2018-Jan-31 03:00N 50°58' E 001°16'4 8.2
2018-Jan-31 02:29N 51°01' E 001°21'4 7.6
2018-Jan-31 02:00N 51°03' E 001°26'4 7.3
2018-Jan-31 01:30N 51°05' E 001°31'3 6.6
2018-Jan-31 01:00N 51°07' E 001°35'7 6.8
2018-Jan-31 00:00N 51°12' E 001°43'4 7.4
2018-Jan-30 23:30N 51°14' E 001°47'4 8.3
2018-Jan-30 23:00N 51°18' E 001°50'5 9.4
2018-Jan-30 22:30N 51°22' E 001°53'1111.1
2018-Jan-30 21:30N 51°31' E 002°04'712.6
2018-Jan-30 20:58N 51°37' E 002°11'713.2
2018-Jan-30 20:27N 51°42' E 002°18'3413.0
2018-Jan-30 17:49N 52°08' E 002°54'412.0
2018-Jan-30 17:29N 52°11' E 002°59'611.7
2018-Jan-30 17:00N 52°15' E 003°04'611.3
2018-Jan-30 16:27N 52°20' E 003°10'6510.5
2018-Jan-30 10:14N 53°09' E 004°21'  
Track history (hours):
 
Tides and Currents Weather Stations Pressure Air Temp Water Temp Dewpoint Dewpoint Depression Visibility Wind Speed Wind Dir Waves Ship Positions

Nedim

Last reported at 2018-Feb-08 09:30 UTC. Time now 2018-Feb-21 21:25 UTC.
Position N 36°20' E 014°42'.
Warning: this ship's position is 13 days out of date.

Length 180 m; draft 9.4 m.

Type: Cargo ship. MMSI: 229214000.

Date/timePositionNaut miles runAvg speedWind from/ knotsBaromVisibWave heightAir tempDewpointWater temp
2018-Feb-08 09:30N 36°20' E 014°42'57712.1
2018-Feb-06 09:44N 37°04' E 002°45'312.1
2018-Feb-06 09:30N 37°04' E 002°41'612.2
2018-Feb-06 09:00N 37°02' E 002°34'612.3
2018-Feb-06 08:30N 37°01' E 002°26'612.3
2018-Feb-06 08:00N 37°00' E 002°19'612.1
2018-Feb-06 07:30N 36°59' E 002°11'36012.4
2018-Feb-05 02:21N 36°01' W 005°11'513.9
2018-Feb-05 02:00N 36°00' W 005°17'714.0
2018-Feb-05 01:30N 35°58' W 005°25'25910.4
2018-Feb-04 00:35N 38°17' W 009°59'212.5
2018-Feb-04 00:26N 38°19' W 009°60'512.3
2018-Feb-04 00:00N 38°24' W 010°01'612.4
2018-Feb-03 23:30N 38°30' W 010°03'612.4
2018-Feb-03 22:59N 38°36' W 010°05'612.3
2018-Feb-03 22:30N 38°42' W 010°06'612.6
2018-Feb-03 22:00N 38°48' W 010°06'612.7
2018-Feb-03 21:30N 38°55' W 010°07'612.4
2018-Feb-03 21:00N 39°01' W 010°07'612.5
2018-Feb-03 20:30N 39°07' W 010°06'612.3
2018-Feb-03 20:00N 39°13' W 010°07'  
2018-Feb-01 00:51N 49°47' W 003°26'511.0
2018-Feb-01 00:25N 49°49' W 003°20'410.7
2018-Feb-01 00:00N 49°51' W 003°14'1010.4
2018-Jan-31 23:00N 49°57' W 002°60'5 9.7
2018-Jan-31 22:30N 49°59' W 002°53'13 8.2
2018-Jan-31 20:55N 50°03' W 002°34'18 6.0
2018-Jan-31 17:57N 50°07' W 002°07'5 7.1
2018-Jan-31 17:18N 50°09' W 002°00'2 7.9
2018-Jan-31 17:00N 50°10' W 001°56'5 9.3
2018-Jan-31 16:30N 50°11' W 001°50'510.5
2018-Jan-31 16:00N 50°12' W 001°42'611.6
2018-Jan-31 15:30N 50°14' W 001°33'612.3
2018-Jan-31 15:00N 50°15' W 001°24'3812.5
2018-Jan-31 11:55N 50°25' W 000°26'410.5
2018-Jan-31 11:30N 50°27' W 000°19'5 9.8
2018-Jan-31 11:00N 50°28' W 000°11'4 9.0
2018-Jan-31 10:30N 50°29' W 000°05'4 8.1
2018-Jan-31 10:00N 50°30' E 000°01'4 7.3
2018-Jan-31 09:30N 50°31' E 000°07'3 6.5
2018-Jan-31 09:00N 50°32' E 000°12'3 6.1
2018-Jan-31 08:30N 50°33' E 000°16'3 6.2
2018-Jan-31 08:00N 50°34' E 000°21'3 6.9
2018-Jan-31 07:30N 50°35' E 000°26'4 7.4
2018-Jan-31 07:00N 50°36' E 000°32'4 8.3
2018-Jan-31 06:30N 50°37' E 000°38'4 9.0
2018-Jan-31 06:00N 50°40' E 000°43'5 9.1
2018-Jan-31 05:30N 50°43' E 000°49'5 9.5
2018-Jan-31 05:00N 50°46' E 000°55'5 9.5
2018-Jan-31 04:30N 50°49' E 001°00'10 8.9
2018-Jan-31 03:26N 50°56' E 001°12'4 8.9
2018-Jan-31 03:00N 50°58' E 001°16'4 8.2
2018-Jan-31 02:29N 51°01' E 001°21'4 7.6
2018-Jan-31 02:00N 51°03' E 001°26'4 7.3
2018-Jan-31 01:30N 51°05' E 001°31'3 6.6
2018-Jan-31 01:00N 51°07' E 001°35'7 6.8
2018-Jan-31 00:00N 51°12' E 001°43'4 7.4
2018-Jan-30 23:30N 51°14' E 001°47'4 8.3
2018-Jan-30 23:00N 51°18' E 001°50'5 9.4
2018-Jan-30 22:30N 51°22' E 001°53'1111.1
2018-Jan-30 21:30N 51°31' E 002°04'712.6
2018-Jan-30 20:58N 51°37' E 002°11'713.2
2018-Jan-30 20:27N 51°42' E 002°18'3413.0
2018-Jan-30 17:49N 52°08' E 002°54'412.0
2018-Jan-30 17:29N 52°11' E 002°59'611.7
2018-Jan-30 17:00N 52°15' E 003°04'611.3
2018-Jan-30 16:27N 52°20' E 003°10'6510.5
2018-Jan-30 10:14N 53°09' E 004°21'  

Dump ship's entire track history